Time;durP1;ratioP1;P1;durP2;ratioP2;P2;SDS_P1;SDS_P2;PMS_P1;PMS_P2;Temp;Humidity;BMP_temperature;BMP_pressure;BME280_temperature;BME280_humidity;BME280_pressure;Samples;Min_cycle;Max_cycle;Signal;HPM_P1;HPM_P2
2022/09/28 00:01:40;;;;;;;10.30;4.43;;;11.10;99.90;;;;;;5047136;28;20467;-61
2022/09/28 00:04:08;;;;;;;6.10;3.87;;;11.30;99.90;;;;;;5045455;28;20484;-61
2022/09/28 00:06:34;;;;;;;4.47;3.50;;;11.40;99.90;;;;;;5047012;28;21192;-61
2022/09/28 00:09:01;;;;;;;17.30;4.23;;;11.50;99.90;;;;;;5045004;28;20487;-60
2022/09/28 00:11:28;;;;;;;8.20;5.53;;;11.60;99.90;;;;;;5016739;28;20480;-60
2022/09/28 00:13:58;;;;;;;4.30;3.57;;;11.60;99.90;;;;;;5032812;28;21235;-60
2022/09/28 00:16:28;;;;;;;7.03;3.43;;;11.60;99.90;;;;;;5045782;28;20476;-61
2022/09/28 00:18:55;;;;;;;5.27;4.30;;;11.60;99.90;;;;;;5050659;28;20479;-61
2022/09/28 00:21:24;;;;;;;11.13;5.63;;;11.60;99.90;;;;;;5049915;28;20475;-61
2022/09/28 00:24:12;;;;;;;8.13;4.50;;;11.50;99.90;;;;;;5050188;28;21422;-61
2022/09/28 00:26:41;;;;;;;3.30;2.67;;;11.50;99.90;;;;;;5049929;28;20480;-61
2022/09/28 00:29:14;;;;;;;5.30;3.97;;;11.50;99.90;;;;;;5048280;28;21030;-61
2022/09/28 00:31:40;;;;;;;8.90;5.33;;;11.50;99.90;;;;;;5046222;28;20471;-60
2022/09/28 00:34:07;;;;;;;6.93;2.43;;;12.60;99.90;;;;;;5048172;28;20804;-60
2022/09/28 00:36:35;;;;;;;6.73;3.63;;;11.40;99.90;;;;;;5049798;28;20487;-60
2022/09/28 00:39:05;;;;;;;5.20;4.50;;;11.50;99.90;;;;;;5049602;28;20480;-60
2022/09/28 00:41:31;;;;;;;8.37;3.87;;;11.50;99.90;;;;;;5048596;28;20480;-59
2022/09/28 00:44:36;;;;;;;4.17;3.57;;;11.50;99.90;;;;;;5049214;28;20482;-60
2022/09/28 00:47:19;;;;;;;5.20;4.57;;;11.30;99.90;;;;;;5046352;28;20514;-60
2022/09/28 00:49:50;;;;;;;6.37;3.20;;;11.20;99.90;;;;;;5046514;28;20730;-61
2022/09/28 00:52:26;;;;;;;7.90;6.23;;;11.10;99.90;;;;;;5033086;28;21243;-61
2022/09/28 00:54:54;;;;;;;5.97;4.30;;;11.00;99.90;;;;;;5047761;28;20703;-60
2022/09/28 00:57:22;;;;;;;9.70;5.50;;;11.10;99.90;;;;;;5048377;28;20486;-60
2022/09/28 00:59:50;;;;;;;4.30;3.40;;;11.10;99.90;;;;;;5043757;28;20835;-60
2022/09/28 01:02:16;;;;;;;13.33;7.20;;;11.10;99.90;;;;;;5036414;28;20476;-61
2022/09/28 01:04:43;;;;;;;10.70;3.63;;;11.10;99.90;;;;;;5024151;28;20475;-60
2022/09/28 01:07:11;;;;;;;13.23;5.43;;;11.10;99.90;;;;;;5046469;28;20471;-60
2022/09/28 01:09:40;;;;;;;11.20;7.23;;;11.00;99.90;;;;;;5045951;28;20506;-61
2022/09/28 01:12:07;;;;;;;11.90;5.33;;;11.10;99.90;;;;;;5045158;28;20577;-60
2022/09/28 01:14:34;;;;;;;7.10;5.17;;;11.20;99.90;;;;;;5046338;28;20483;-61
2022/09/28 01:17:07;;;;;;;14.90;6.80;;;11.30;99.90;;;;;;5049504;28;20818;-63
2022/09/28 01:20:18;;;;;;;15.13;6.50;;;11.40;99.90;;;;;;5045446;28;21170;-61
2022/09/28 01:23:18;;;;;;;8.23;6.20;;;11.40;99.90;;;;;;5047122;28;21193;-62
2022/09/28 01:25:54;;;;;;;6.17;4.70;;;11.50;99.90;;;;;;5022716;28;20491;-62
2022/09/28 01:28:26;;;;;;;9.57;6.83;;;11.50;99.90;;;;;;5035983;28;20554;-61
2022/09/28 01:31:03;;;;;;;17.33;6.43;;;11.50;99.90;;;;;;5047546;28;20879;-62
2022/09/28 01:33:36;;;;;;;10.70;3.77;;;11.50;99.90;;;;;;5048878;28;20479;-62
2022/09/28 01:36:09;;;;;;;17.00;4.70;;;11.50;99.90;;;;;;5045808;28;21026;-63
2022/09/28 01:38:41;;;;;;;9.00;4.50;;;11.50;99.90;;;;;;5047099;28;21007;-63
2022/09/28 01:41:09;;;;;;;7.07;4.10;;;;;;;;;;5047006;28;20491;-63
2022/09/28 01:43:39;;;;;;;7.37;4.47;;;11.50;99.90;;;;;;5047748;28;20736;-62
2022/09/28 01:46:11;;;;;;;9.13;4.37;;;11.50;99.90;;;;;;5047879;28;20517;-62
2022/09/28 01:48:43;;;;;;;4.20;3.83;;;11.50;99.90;;;;;;5055259;28;20499;-63
2022/09/28 01:51:14;;;;;;;6.00;4.60;;;11.50;99.90;;;;;;5049245;28;20483;-62
2022/09/28 01:53:45;;;;;;;5.97;3.40;;;11.60;99.90;;;;;;5050217;28;20886;-63
2022/09/28 01:56:17;;;;;;;6.23;5.60;;;11.70;99.90;;;;;;5051623;28;20486;-63
2022/09/28 01:58:50;;;;;;;5.93;3.60;;;11.70;99.90;;;;;;5048037;28;20491;-63
2022/09/28 02:01:22;;;;;;;9.77;5.53;;;11.70;99.90;;;;;;5049866;28;21021;-62
2022/09/28 02:03:53;;;;;;;6.03;3.27;;;11.60;99.90;;;;;;5055438;28;20896;-62
2022/09/28 02:06:26;;;;;;;5.70;5.13;;;11.70;99.90;;;;;;5056108;28;20475;-62
2022/09/28 02:08:58;;;;;;;3.87;3.50;;;11.80;99.90;;;;;;5043966;28;20490;-63
2022/09/28 02:11:25;;;;;;;6.03;5.40;;;11.80;99.90;;;;;;5055596;28;20554;-62
2022/09/28 02:13:58;;;;;;;17.27;3.43;;;11.90;99.90;;;;;;5056020;28;20478;-62
2022/09/28 02:16:32;;;;;;;9.47;4.80;;;11.90;99.90;;;;;;5029121;28;21175;-63
2022/09/28 02:18:59;;;;;;;4.53;3.60;;;11.90;99.90;;;;;;5071675;28;20913;-62
2022/09/28 02:21:29;;;;;;;9.57;6.50;;;11.90;99.90;;;;;;5073264;28;20486;-62
2022/09/28 02:24:00;;;;;;;10.10;5.43;;;11.90;99.90;;;;;;5064012;28;20666;-62
2022/09/28 02:26:31;;;;;;;8.67;5.03;;;11.90;99.90;;;;;;5065847;28;20930;-61
2022/09/28 02:28:59;;;;;;;12.00;4.27;;;11.90;99.90;;;;;;5073533;28;20474;-61
2022/09/28 02:31:27;;;;;;;7.07;6.13;;;11.90;99.90;;;;;;5076415;28;20485;-61
2022/09/28 02:33:56;;;;;;;10.27;3.20;;;11.80;99.90;;;;;;5071991;28;20570;-61
2022/09/28 02:36:25;;;;;;;7.43;6.03;;;11.80;99.90;;;;;;5074449;28;20872;-62
2022/09/28 02:38:52;;;;;;;7.90;4.07;;;11.80;99.90;;;;;;5071050;28;21096;-62
2022/09/28 02:41:30;;;;;;;12.63;6.00;;;11.90;99.90;;;;;;5074149;28;20500;-61
2022/09/28 02:44:08;;;;;;;11.10;4.40;;;11.80;99.90;;;;;;5065648;28;20477;-61
2022/09/28 02:46:43;;;;;;;6.93;4.57;;;11.80;99.90;;;;;;5080095;28;20492;-61
2022/09/28 02:49:23;;;;;;;9.07;4.97;;;11.80;99.90;;;;;;5066687;28;20556;-61
2022/09/28 02:52:06;;;;;;;12.93;4.23;;;11.80;99.90;;;;;;5072152;28;20474;-61
2022/09/28 02:54:52;;;;;;;9.93;4.30;;;11.90;99.90;;;;;;5065299;28;20567;-61
2022/09/28 02:57:31;;;;;;;17.63;8.60;;;11.90;99.90;;;;;;5073112;28;21036;-61
2022/09/28 03:00:07;;;;;;;9.03;4.57;;;12.00;99.90;;;;;;5074276;28;20458;-61
2022/09/28 03:02:40;;;;;;;12.47;5.90;;;12.00;99.90;;;;;;5061024;28;20470;-61
2022/09/28 03:05:13;;;;;;;10.27;5.60;;;12.10;99.90;;;;;;5076002;28;20489;-60
2022/09/28 03:07:45;;;;;;;16.37;5.80;;;12.00;99.90;;;;;;5073823;28;20500;-61
2022/09/28 03:10:17;;;;;;;8.80;6.70;;;12.00;99.90;;;;;;5076880;28;20874;-61
2022/09/28 03:12:47;;;;;;;14.20;5.17;;;12.00;99.90;;;;;;5077315;28;20482;-61
2022/09/28 03:15:22;;;;;;;8.87;6.30;;;12.00;99.90;;;;;;5078081;28;20486;-61
2022/09/28 03:17:48;;;;;;;14.00;4.80;;;12.10;99.90;;;;;;5073876;28;21017;-60
2022/09/28 03:20:16;;;;;;;13.87;6.70;;;12.20;99.90;;;;;;5073957;28;20483;-61
2022/09/28 03:22:43;;;;;;;10.90;5.67;;;12.10;99.90;;;;;;5058970;28;20471;-60
2022/09/28 03:25:11;;;;;;;9.93;5.33;;;12.10;99.90;;;;;;5074574;28;20547;-61
2022/09/28 03:27:38;;;;;;;8.77;5.17;;;12.00;99.90;;;;;;5075619;28;20535;-60
2022/09/28 03:30:05;;;;;;;9.27;5.70;;;12.00;99.90;;;;;;5076021;28;21152;-60
2022/09/28 03:32:33;;;;;;;9.83;5.47;;;12.10;99.90;;;;;;5072362;28;20643;-60
2022/09/28 03:35:00;;;;;;;9.50;5.43;;;12.10;99.90;;;;;;5073192;28;20882;-61
2022/09/28 03:37:27;;;;;;;9.07;5.37;;;11.80;99.90;;;;;;5072461;28;20474;-61
2022/09/28 03:39:54;;;;;;;14.33;4.80;;;12.20;99.90;;;;;;5070498;28;20470;-61
2022/09/28 03:42:21;;;;;;;13.50;8.60;;;12.20;99.90;;;;;;5073906;28;21264;-61
2022/09/28 03:44:48;;;;;;;4.60;4.20;;;12.10;99.90;;;;;;5075007;28;20820;-61
2022/09/28 03:47:16;;;;;;;8.77;5.70;;;12.80;99.90;;;;;;5065260;28;20487;-61
2022/09/28 03:49:45;;;;;;;8.43;4.60;;;12.00;99.90;;;;;;5075608;28;20521;-61
2022/09/28 03:52:13;;;;;;;20.50;7.10;;;12.10;99.90;;;;;;5073690;28;20541;-61
2022/09/28 03:54:40;;;;;;;18.23;4.43;;;12.00;99.90;;;;;;5072791;28;20471;-60
2022/09/28 03:57:07;;;;;;;8.90;5.07;;;12.10;99.90;;;;;;5064724;28;20485;-60
2022/09/28 03:59:36;;;;;;;15.00;7.10;;;12.20;99.90;;;;;;5067930;28;20483;-60
2022/09/28 04:02:03;;;;;;;10.13;4.87;;;12.20;99.90;;;;;;5077381;28;20482;-60
2022/09/28 04:04:30;;;;;;;8.53;4.43;;;12.20;99.90;;;;;;5075487;28;20475;-60
2022/09/28 04:06:58;;;;;;;6.33;4.60;;;12.20;99.90;;;;;;5075976;28;20502;-60
2022/09/28 04:09:25;;;;;;;11.17;7.23;;;12.20;99.90;;;;;;5072098;28;20494;-60
2022/09/28 04:11:51;;;;;;;9.03;5.67;;;12.30;99.90;;;;;;5056800;28;20483;-61
2022/09/28 04:14:18;;;;;;;13.53;9.87;;;12.30;99.90;;;;;;5069369;28;20493;-60
2022/09/28 04:16:46;;;;;;;11.73;4.60;;;12.30;99.90;;;;;;5070308;28;20481;-60
2022/09/28 04:19:13;;;;;;;10.03;4.43;;;12.30;99.90;;;;;;5071121;28;20905;-60
2022/09/28 04:21:40;;;;;;;9.43;5.50;;;12.30;99.90;;;;;;5074808;28;20817;-60
2022/09/28 04:24:09;;;;;;;10.90;5.20;;;12.20;99.90;;;;;;5073168;28;20487;-60
2022/09/28 04:26:36;;;;;;;7.60;5.53;;;12.20;99.90;;;;;;5071388;28;21377;-60
2022/09/28 04:29:17;;;;;;;7.57;4.47;;;12.20;99.90;;;;;;5073298;28;20815;-60
2022/09/28 04:31:47;;;;;;;8.67;5.87;;;12.20;99.90;;;;;;5072294;28;20473;-60
2022/09/28 04:34:16;;;;;;;6.10;4.93;;;12.10;99.90;;;;;;5072070;28;20790;-61
2022/09/28 04:36:43;;;;;;;13.80;4.20;;;12.10;99.90;;;;;;5074410;28;20872;-60
2022/09/28 04:39:11;;;;;;;9.00;4.53;;;12.00;99.90;;;;;;5069447;28;20515;-60
2022/09/28 04:41:37;;;;;;;19.73;5.43;;;12.00;99.90;;;;;;5071779;28;20487;-60
2022/09/28 04:44:04;;;;;;;11.77;5.73;;;11.90;99.90;;;;;;5072874;28;21187;-60
2022/09/28 04:46:31;;;;;;;9.80;5.63;;;11.90;99.90;;;;;;5077533;28;20478;-60
2022/09/28 04:48:58;;;;;;;10.33;6.50;;;11.90;99.90;;;;;;5065657;28;20474;-60
2022/09/28 04:51:25;;;;;;;20.13;8.33;;;11.90;99.90;;;;;;5073417;28;20490;-60
2022/09/28 04:53:51;;;;;;;8.90;4.23;;;11.90;99.90;;;;;;5059280;28;20479;-60
2022/09/28 04:56:19;;;;;;;45.10;21.57;;;11.90;99.90;;;;;;5073663;28;20478;-60
2022/09/28 04:58:46;;;;;;;27.63;14.47;;;11.90;99.90;;;;;;5073920;28;20537;-60
2022/09/28 05:01:15;;;;;;;13.27;7.97;;;11.90;99.90;;;;;;5068462;28;20473;-61
2022/09/28 05:03:42;;;;;;;11.83;6.77;;;11.80;99.90;;;;;;5072876;28;20486;-61
2022/09/28 05:06:10;;;;;;;18.23;6.77;;;11.80;99.90;;;;;;5071622;28;20483;-60
2022/09/28 05:08:36;;;;;;;11.63;8.00;;;11.90;99.90;;;;;;5071130;28;20543;-60
2022/09/28 05:11:05;;;;;;;64.17;28.53;;;11.80;99.90;;;;;;5063546;28;20793;-60
2022/09/28 05:13:40;;;;;;;68.73;28.97;;;11.80;99.90;;;;;;5067649;28;20478;-60
2022/09/28 05:16:07;;;;;;;40.27;22.37;;;11.80;99.90;;;;;;5070303;28;20474;-60
2022/09/28 05:18:34;;;;;;;33.60;18.80;;;11.90;99.90;;;;;;5063805;28;20486;-61
2022/09/28 05:21:01;;;;;;;69.57;34.47;;;11.90;99.90;;;;;;5067497;28;20477;-60
2022/09/28 05:23:27;;;;;;;46.87;23.90;;;11.90;99.90;;;;;;5076213;28;20585;-60
2022/09/28 05:25:54;;;;;;;26.17;11.80;;;11.90;99.90;;;;;;5073808;28;20478;-61
2022/09/28 05:28:25;;;;;;;92.80;40.87;;;11.90;99.90;;;;;;5071194;28;20754;-61
2022/09/28 05:30:58;;;;;;;72.40;32.67;;;12.00;99.90;;;;;;5071469;28;20501;-61
2022/09/28 05:33:25;;;;;;;117.83;65.87;;;12.00;99.90;;;;;;5071151;28;20487;-60
2022/09/28 05:35:52;;;;;;;26.40;14.80;;;12.00;99.90;;;;;;5071802;28;20767;-60
2022/09/28 05:38:18;;;;;;;29.80;12.37;;;12.00;99.90;;;;;;5069779;28;20533;-61
2022/09/28 05:40:45;;;;;;;30.20;9.77;;;12.00;99.90;;;;;;5067600;28;20892;-60
2022/09/28 05:43:11;;;;;;;33.87;12.57;;;11.90;99.90;;;;;;5071124;28;20552;-61
2022/09/28 05:45:38;;;;;;;26.23;9.30;;;11.90;99.90;;;;;;5073338;28;20497;-61
2022/09/28 05:48:06;;;;;;;21.77;7.00;;;11.80;99.90;;;;;;5070420;28;20977;-60
2022/09/28 05:50:33;;;;;;;41.13;15.43;;;11.80;99.90;;;;;;5066802;28;20921;-60
2022/09/28 05:53:00;;;;;;;27.30;10.23;;;11.90;99.90;;;;;;5073208;28;20654;-61
2022/09/28 05:55:27;;;;;;;29.60;8.67;;;11.90;99.90;;;;;;5072309;28;20835;-60
2022/09/28 05:57:58;;;;;;;14.90;6.63;;;11.80;99.90;;;;;;5073533;28;20536;-61
2022/09/28 06:00:25;;;;;;;37.43;12.00;;;11.80;99.90;;;;;;5069847;28;20482;-61
2022/09/28 06:02:59;;;;;;;22.90;7.13;;;11.80;99.90;;;;;;5073460;28;20900;-60
2022/09/28 06:05:28;;;;;;;41.47;12.90;;;11.80;99.90;;;;;;5069429;28;20633;-60
2022/09/28 06:07:56;;;;;;;16.73;7.80;;;11.80;99.90;;;;;;5063328;28;20538;-60
2022/09/28 06:10:24;;;;;;;33.20;10.80;;;11.80;99.90;;;;;;5070801;28;20593;-60
2022/09/28 06:12:53;;;;;;;24.00;8.53;;;11.80;99.90;;;;;;5072735;28;20479;-60
2022/09/28 06:15:19;;;;;;;30.67;11.27;;;11.90;99.90;;;;;;5066461;28;20470;-60
2022/09/28 06:17:46;;;;;;;35.57;10.00;;;11.90;99.90;;;;;;5078661;28;20495;-60
2022/09/28 06:20:13;;;;;;;23.23;8.73;;;11.90;99.90;;;;;;5070771;28;20493;-60
2022/09/28 06:22:41;;;;;;;37.33;9.00;;;11.90;99.90;;;;;;5061064;28;20467;-60
2022/09/28 06:25:09;;;;;;;22.20;8.67;;;11.90;99.90;;;;;;5068006;28;20820;-60
2022/09/28 06:27:36;;;;;;;24.50;9.13;;;12.00;99.90;;;;;;5064040;28;20506;-60
2022/09/28 06:30:02;;;;;;;19.37;6.83;;;12.10;99.90;;;;;;5060681;28;20484;-61
2022/09/28 06:32:29;;;;;;;9.87;6.67;;;12.40;99.90;;;;;;5064883;28;20489;-61
2022/09/28 06:34:56;;;;;;;13.93;7.23;;;13.00;99.90;;;;;;5067149;28;20486;-61
2022/09/28 06:37:24;;;;;;;13.17;9.37;;;13.90;99.90;;;;;;5071727;28;20593;-60
2022/09/28 06:39:52;;;;;;;12.40;5.83;;;14.60;99.90;;;;;;5069626;28;20994;-61
2022/09/28 06:42:19;;;;;;;16.60;9.27;;;15.40;99.90;;;;;;5059245;28;20551;-61
2022/09/28 06:44:46;;;;;;;18.03;5.93;;;16.30;98.20;;;;;;5073008;28;20486;-62
2022/09/28 06:47:13;;;;;;;5.50;5.00;;;16.40;96.60;;;;;;5075982;28;20855;-61
2022/09/28 06:49:40;;;;;;;8.03;5.50;;;16.40;97.10;;;;;;5075650;28;21089;-61
2022/09/28 06:52:06;;;;;;;28.67;5.27;;;16.00;97.00;;;;;;5078347;28;20490;-61
2022/09/28 06:54:33;;;;;;;8.60;5.47;;;15.30;96.60;;;;;;5075268;28;20482;-61
2022/09/28 06:57:01;;;;;;;10.27;5.97;;;14.80;97.20;;;;;;5076029;28;20478;-61
2022/09/28 06:59:28;;;;;;;9.20;4.27;;;14.30;97.80;;;;;;5077949;28;20521;-62
2022/09/28 07:01:55;;;;;;;10.40;6.27;;;14.00;98.30;;;;;;5074837;28;20509;-62
2022/09/28 07:04:22;;;;;;;17.77;7.10;;;13.70;98.70;;;;;;5075877;28;20594;-62
2022/09/28 07:06:49;;;;;;;14.03;4.87;;;13.60;99.20;;;;;;5076191;28;20483;-62
2022/09/28 07:09:16;;;;;;;16.67;7.53;;;13.30;99.10;;;;;;5072760;28;20814;-62
2022/09/28 07:11:43;;;;;;;6.20;5.23;;;13.30;99.70;;;;;;5074525;28;20676;-62
2022/09/28 07:14:11;;;;;;;18.47;6.23;;;13.20;99.90;;;;;;5074933;28;20478;-62
2022/09/28 07:16:38;;;;;;;8.93;5.80;;;13.30;99.90;;;;;;5075569;28;20482;-62
2022/09/28 07:19:05;;;;;;;12.17;5.97;;;13.30;99.90;;;;;;5074463;28;20488;-62
2022/09/28 07:21:32;;;;;;;13.47;5.60;;;13.30;99.90;;;;;;5069533;28;20894;-63
2022/09/28 07:23:59;;;;;;;9.17;5.27;;;13.20;99.90;;;;;;5069236;28;21009;-62
2022/09/28 07:26:26;;;;;;;11.70;7.43;;;13.10;99.90;;;;;;5078349;28;20587;-62
2022/09/28 07:28:54;;;;;;;16.37;6.27;;;13.10;99.90;;;;;;5072487;28;20887;-62
2022/09/28 07:31:24;;;;;;;11.00;8.07;;;13.30;99.90;;;;;;5074612;28;20485;-62
2022/09/28 07:33:52;;;;;;;9.50;6.23;;;13.70;99.90;;;;;;5075426;28;21033;-62
2022/09/28 07:36:19;;;;;;;12.00;6.83;;;14.30;99.10;;;;;;5073847;28;20964;-63
2022/09/28 07:38:46;;;;;;;6.73;4.30;;;14.60;98.30;;;;;;5072968;28;21034;-63
2022/09/28 07:41:13;;;;;;;7.83;6.37;;;14.80;97.70;;;;;;5070871;28;20485;-63
2022/09/28 07:43:40;;;;;;;16.60;5.90;;;15.20;97.60;;;;;;5060746;28;20518;-63
2022/09/28 07:46:10;;;;;;;5.23;4.70;;;15.20;97.40;;;;;;5087519;28;20496;-62
2022/09/28 07:48:39;;;;;;;13.83;5.57;;;;;;;;;;5074593;28;20482;-63
2022/09/28 07:51:06;;;;;;;7.10;4.80;;;15.60;97.00;;;;;;5072568;28;20502;-63
2022/09/28 07:53:33;;;;;;;11.60;4.60;;;15.60;95.90;;;;;;5075475;28;20992;-63
2022/09/28 07:56:03;;;;;;;9.73;4.80;;;15.20;95.60;;;;;;5077124;28;20557;-63
2022/09/28 07:58:31;;;;;;;8.30;4.83;;;14.80;95.70;;;;;;5069535;28;20490;-62
2022/09/28 08:00:59;;;;;;;15.00;6.70;;;14.50;96.30;;;;;;5065924;28;20490;-63
2022/09/28 08:03:27;;;;;;;9.60;6.60;;;14.20;96.80;;;;;;5075971;28;20533;-63
2022/09/28 08:05:59;;;;;;;6.80;5.60;;;14.00;97.20;;;;;;5074253;28;20580;-62
2022/09/28 08:08:25;;;;;;;13.10;6.80;;;14.00;97.40;;;;;;5073356;28;20483;-62
2022/09/28 08:10:52;;;;;;;17.57;5.37;;;13.90;98.00;;;;;;5072914;28;20494;-62
2022/09/28 08:13:19;;;;;;;11.43;8.43;;;13.90;98.10;;;;;;5069802;28;20993;-62
2022/09/28 08:15:49;;;;;;;9.30;5.73;;;13.90;98.20;;;;;;5069296;28;20540;-63
2022/09/28 08:18:16;;;;;;;12.00;5.40;;;13.90;98.00;;;;;;5074219;28;20467;-63
2022/09/28 08:23:29;;;;;;;25.77;7.00;;;13.70;98.40;;;;;;5062183;28;20483;-63
2022/09/28 08:25:55;;;;;;;9.27;5.67;;;13.60;98.00;;;;;;5073880;28;20791;-63
2022/09/28 08:28:23;;;;;;;8.80;7.70;;;13.60;98.10;;;;;;5071954;28;20912;-63
2022/09/28 08:30:51;;;;;;;15.40;6.60;;;13.70;98.30;;;;;;5072375;28;20975;-63
2022/09/28 08:33:20;;;;;;;10.23;6.40;;;13.70;98.20;;;;;;5073857;28;20482;-63
2022/09/28 08:35:47;;;;;;;11.17;6.47;;;13.60;98.50;;;;;;5069588;28;20570;-63
2022/09/28 08:38:14;;;;;;;13.53;7.87;;;13.50;98.80;;;;;;5071984;28;20483;-63
2022/09/28 08:40:50;;;;;;;10.40;6.03;;;13.40;98.20;;;;;;5072959;28;20577;-63
2022/09/28 08:43:33;;;;;;;11.03;9.50;;;13.50;98.50;;;;;;5068456;28;20470;-63
2022/09/28 08:46:00;;;;;;;8.90;6.27;;;13.50;98.30;;;;;;5058715;28;20481;-62
2022/09/28 08:48:47;;;;;;;6.70;6.00;;;;;;;;;;5073733;28;20761;-62
2022/09/28 08:51:18;;;;;;;12.33;7.50;;;13.40;98.10;;;;;;5071395;28;21003;-63
2022/09/28 08:53:53;;;;;;;11.97;6.57;;;13.40;97.90;;;;;;5073271;28;20505;-63
2022/09/28 08:56:29;;;;;;;7.50;5.83;;;13.60;98.30;;;;;;5071189;28;20482;-63
2022/09/28 08:59:00;;;;;;;9.00;5.13;;;13.70;99.90;;;;;;5063844;28;20482;-63
2022/09/28 09:01:35;;;;;;;14.80;8.63;;;14.00;98.70;;;;;;5057875;28;20611;-63
2022/09/28 09:04:03;;;;;;;7.67;4.87;;;14.10;98.20;;;;;;5059196;28;20465;-63
2022/09/28 09:06:39;;;;;;;16.90;4.90;;;14.00;97.10;;;;;;5067755;28;20497;-62
2022/09/28 09:09:13;;;;;;;8.40;5.40;;;14.00;97.00;;;;;;5073446;28;20535;-63
2022/09/28 09:12:03;;;;;;;5.87;5.30;;;14.00;97.30;;;;;;5072906;28;20482;-63
2022/09/28 09:14:52;;;;;;;9.90;5.43;;;13.90;97.20;;;;;;5071659;28;21509;-62
2022/09/28 09:17:27;;;;;;;9.30;7.80;;;14.10;98.30;;;;;;5070320;28;23330;-62
2022/09/28 09:19:58;;;;;;;15.23;4.70;;;14.30;97.70;;;;;;5071051;28;21064;-63
2022/09/28 09:22:35;;;;;;;11.67;6.97;;;14.50;97.60;;;;;;5070334;28;20486;-63
2022/09/28 09:25:09;;;;;;;5.63;5.03;;;14.40;96.50;;;;;;5062735;28;20478;-62
2022/09/28 09:27:54;;;;;;;9.57;6.23;;;14.40;96.30;;;;;;5071515;28;20490;-63
2022/09/28 09:30:21;;;;;;;9.90;6.93;;;14.30;95.90;;;;;;5072085;28;21169;-62
2022/09/28 09:33:12;;;;;;;12.40;4.87;;;14.30;96.20;;;;;;5071828;28;20605;-63
2022/09/28 09:35:59;;;;;;;8.50;5.27;;;14.20;96.20;;;;;;5072219;28;20493;-62
2022/09/28 09:38:43;;;;;;;9.43;6.20;;;14.30;95.70;;;;;;5056945;28;20487;-62
2022/09/28 09:41:20;;;;;;;25.23;5.63;;;14.70;97.00;;;;;;5065058;28;20485;-62
2022/09/28 09:44:10;;;;;;;10.57;5.47;;;14.60;96.00;;;;;;5071634;28;21228;-63
2022/09/28 09:46:41;;;;;;;8.33;6.77;;;14.50;95.30;;;;;;5062764;28;20470;-62
2022/09/28 09:49:15;;;;;;;7.07;6.20;;;14.30;95.70;;;;;;5070193;28;20489;-62
2022/09/28 09:51:46;;;;;;;12.40;4.30;;;14.30;95.90;;;;;;5071312;28;21030;-62
2022/09/28 09:54:21;;;;;;;9.07;5.87;;;14.40;95.40;;;;;;5071557;28;20479;-62
2022/09/28 09:56:53;;;;;;;6.10;4.33;;;14.30;95.40;;;;;;5070567;28;20810;-63
2022/09/28 09:59:25;;;;;;;9.07;8.10;;;14.30;95.60;;;;;;5069294;28;20831;-63
2022/09/28 10:01:55;;;;;;;6.63;4.57;;;14.20;95.10;;;;;;5062015;28;20624;-63
2022/09/28 10:04:27;;;;;;;9.57;6.10;;;14.30;95.90;;;;;;5071384;28;21010;-62
2022/09/28 10:06:58;;;;;;;9.10;4.93;;;14.40;96.00;;;;;;5069868;28;20463;-63
2022/09/28 10:09:30;;;;;;;12.60;6.20;;;14.50;95.50;;;;;;5060200;28;20543;-62
2022/09/28 10:11:57;;;;;;;5.80;4.37;;;14.60;95.30;;;;;;5070272;28;20601;-63
2022/09/28 10:14:25;;;;;;;16.80;7.07;;;14.70;95.00;;;;;;5072399;28;20490;-62
2022/09/28 10:16:55;;;;;;;9.50;3.83;;;14.80;95.00;;;;;;5073298;28;20502;-63
2022/09/28 10:19:29;;;;;;;7.30;5.57;;;15.00;95.70;;;;;;5073786;28;20490;-62
2022/09/28 10:21:57;;;;;;;9.90;4.40;;;15.10;95.20;;;;;;5075968;28;20486;-63
2022/09/28 10:24:30;;;;;;;6.67;5.97;;;15.10;95.40;;;;;;5076151;28;20478;-62
2022/09/28 10:27:02;;;;;;;6.20;4.20;;;15.20;94.90;;;;;;5073761;28;21244;-62
2022/09/28 10:29:39;;;;;;;10.80;4.47;;;15.20;94.80;;;;;;5075750;28;21318;-63
2022/09/28 10:32:18;;;;;;;7.10;5.33;;;15.10;93.80;;;;;;5074354;28;20509;-62
2022/09/28 10:34:45;;;;;;;6.63;3.57;;;14.90;94.30;;;;;;5076895;28;20481;-62
2022/09/28 10:37:12;;;;;;;6.50;5.33;;;14.80;93.70;;;;;;5073044;28;20490;-62
2022/09/28 10:39:46;;;;;;;5.47;4.90;;;15.00;94.40;;;;;;5074971;28;20982;-62
2022/09/28 10:42:19;;;;;;;10.13;4.00;;;15.20;95.10;;;;;;5073720;28;20836;-63
2022/09/28 10:44:53;;;;;;;9.60;4.47;;;15.40;94.90;;;;;;5075739;28;20605;-63
2022/09/28 10:47:23;;;;;;;14.60;5.27;;;15.70;95.00;;;;;;5072328;28;20489;-63
2022/09/28 10:49:51;;;;;;;6.80;5.00;;;15.90;93.30;;;;;;5076313;28;20489;-63
2022/09/28 10:52:37;;;;;;;10.30;7.60;;;15.80;92.30;;;;;;5073739;28;20843;-64
2022/09/28 10:55:29;;;;;;;7.93;5.60;;;15.90;93.10;;;;;;5075548;28;20777;-62
2022/09/28 10:57:56;;;;;;;13.73;4.07;;;15.90;92.80;;;;;;5069886;28;21355;-63
2022/09/28 11:00:40;;;;;;;11.67;5.80;;;16.00;91.90;;;;;;5073517;28;20485;-63
2022/09/28 11:03:07;;;;;;;9.90;3.90;;;;;;;;;;5065402;28;21267;-63
2022/09/28 11:05:34;;;;;;;7.80;5.20;;;16.30;92.70;;;;;;5064626;28;20821;-63
2022/09/28 11:08:06;;;;;;;7.00;5.67;;;16.30;92.10;;;;;;5072451;28;20614;-63
2022/09/28 11:10:34;;;;;;;10.40;4.43;;;15.80;91.70;;;;;;5064093;28;20478;-62
2022/09/28 11:13:01;;;;;;;15.47;5.87;;;14.90;92.20;;;;;;5068457;28;20766;-63
2022/09/28 11:15:30;;;;;;;7.80;4.90;;;15.60;92.10;;;;;;5069258;28;20867;-63
2022/09/28 11:18:18;;;;;;;8.93;4.27;;;15.60;92.60;;;;;;5076440;28;20933;-63
2022/09/28 11:20:45;;;;;;;8.70;4.63;;;;;;;;;;5072941;28;20500;-63
2022/09/28 11:23:30;;;;;;;5.93;5.37;;;15.50;90.90;;;;;;5074338;28;20478;-62
2022/09/28 11:25:59;;;;;;;6.50;4.13;;;15.40;91.80;;;;;;5073997;28;20866;-63
2022/09/28 11:28:31;;;;;;;7.77;5.90;;;15.50;92.30;;;;;;5066345;28;21263;-63
2022/09/28 11:30:58;;;;;;;6.03;5.10;;;15.30;91.50;;;;;;5072555;28;20494;-63
2022/09/28 11:33:30;;;;;;;11.23;5.27;;;15.60;93.20;;;;;;5074768;28;20573;-63
2022/09/28 11:36:10;;;;;;;14.80;5.13;;;15.70;92.70;;;;;;5074388;28;20481;-63
2022/09/28 11:38:40;;;;;;;8.17;5.30;;;16.10;93.30;;;;;;5061850;28;20474;-63
2022/09/28 11:41:30;;;;;;;6.10;4.63;;;16.20;92.40;;;;;;5062507;28;20983;-63
2022/09/28 11:44:14;;;;;;;4.33;3.47;;;16.40;90.40;;;;;;5071381;28;20943;-63
2022/09/28 11:46:48;;;;;;;7.60;5.00;;;16.40;90.20;;;;;;5063635;28;20471;-62
2022/09/28 11:49:27;;;;;;;19.00;5.60;;;16.60;89.00;;;;;;5073749;28;20549;-63
2022/09/28 11:51:57;;;;;;;4.23;3.83;;;16.60;90.50;;;;;;5072529;28;21144;-63
2022/09/28 11:54:31;;;;;;;10.77;5.60;;;16.70;87.80;;;;;;5072824;28;21007;-63
2022/09/28 11:57:01;;;;;;;4.33;3.93;;;16.80;90.50;;;;;;5075602;28;20478;-63
2022/09/28 11:59:33;;;;;;;6.43;3.97;;;16.80;90.20;;;;;;5073403;28;20486;-63
2022/09/28 12:02:09;;;;;;;6.83;3.83;;;16.80;88.10;;;;;;5069361;28;20548;-63
2022/09/28 12:04:42;;;;;;;15.60;4.70;;;16.70;88.20;;;;;;5074300;28;20473;-63
2022/09/28 12:07:14;;;;;;;13.10;4.07;;;18.30;89.10;;;;;;5058203;28;20521;-63
2022/09/28 12:09:45;;;;;;;4.73;4.20;;;16.40;88.70;;;;;;5061401;28;20532;-63
2022/09/28 12:12:21;;;;;;;6.90;6.13;;;16.20;90.20;;;;;;5063387;28;20479;-62
2022/09/28 12:14:51;;;;;;;6.33;4.00;;;16.10;89.80;;;;;;5068970;28;20495;-63
2022/09/28 12:17:23;;;;;;;13.17;5.47;;;16.00;89.80;;;;;;5074025;28;20773;-62
2022/09/28 12:19:56;;;;;;;16.23;3.40;;;15.90;90.70;;;;;;5071605;28;20481;-63
2022/09/28 12:22:28;;;;;;;5.73;5.03;;;15.90;90.90;;;;;;5072898;28;20890;-62
2022/09/28 12:24:57;;;;;;;7.40;3.83;;;15.70;90.80;;;;;;5068353;28;20544;-62
2022/09/28 12:27:31;;;;;;;6.90;6.30;;;15.60;91.10;;;;;;5073569;28;21048;-63
2022/09/28 12:30:02;;;;;;;5.37;3.97;;;15.60;91.00;;;;;;5072624;28;20632;-63
2022/09/28 12:32:36;;;;;;;6.67;4.60;;;15.90;91.70;;;;;;5068842;28;20600;-63
2022/09/28 12:35:11;;;;;;;4.60;3.87;;;16.00;91.00;;;;;;5065710;28;20864;-63
2022/09/28 12:37:57;;;;;;;11.23;4.40;;;16.20;90.50;;;;;;5069027;28;20895;-62
2022/09/28 12:40:33;;;;;;;5.83;4.97;;;;;;;;;;5055610;28;21293;-63
2022/09/28 12:43:18;;;;;;;6.20;4.00;;;16.00;88.00;;;;;;5075945;28;21087;-63
2022/09/28 12:46:11;;;;;;;6.40;4.37;;;16.00;88.30;;;;;;5061783;28;20567;-62
2022/09/28 12:48:53;;;;;;;4.60;4.20;;;16.10;88.90;;;;;;5070355;28;20474;-63
2022/09/28 12:51:35;;;;;;;10.30;4.03;;;16.20;89.70;;;;;;5062533;28;20477;-63
2022/09/28 12:54:15;;;;;;;5.90;3.90;;;16.20;90.00;;;;;;5072408;28;20917;-63
2022/09/28 12:56:51;;;;;;;7.97;4.73;;;16.60;90.00;;;;;;5060417;28;20885;-63
2022/09/28 12:59:27;;;;;;;7.10;5.27;;;16.70;87.60;;;;;;5057983;28;20481;-63
2022/09/28 13:02:21;;;;;;;10.60;4.50;;;17.00;88.20;;;;;;5066180;28;20962;-63
2022/09/28 13:05:09;;;;;;;3.93;3.53;;;17.20;86.10;;;;;;5045004;28;20816;-63
2022/09/28 13:07:48;;;;;;;6.83;5.33;;;17.70;90.00;;;;;;5062094;28;20474;-63